Time;durP1;ratioP1;P1;durP2;ratioP2;P2;SDS_P1;SDS_P2;PMS_P1;PMS_P2;Temp;Humidity;BMP_temperature;BMP_pressure;BME280_temperature;BME280_humidity;BME280_pressure;Samples;Min_cycle;Max_cycle;Signal;HPM_P1;HPM_P2
2022/07/18 00:01:35;;;;;;;24.15;21.23;;;;;;;23.32;63.58;99427.06;4941929;29;20491;-77
2022/07/18 00:04:01;;;;;;;27.63;23.33;;;;;;;23.17;64.45;99424.47;4942037;29;20039;-77
2022/07/18 00:06:27;;;;;;;27.13;23.40;;;;;;;23.15;64.35;99425.72;4957613;29;20141;-76
2022/07/18 00:08:54;;;;;;;28.73;24.30;;;;;;;23.20;64.22;99429.50;4958500;29;20046;-76
2022/07/18 00:11:21;;;;;;;32.97;26.10;;;;;;;23.25;64.10;99434.38;4957263;29;20074;-76
2022/07/18 00:13:47;;;;;;;31.13;27.05;;;;;;;23.13;64.70;99435.97;4956874;29;20110;-76
2022/07/18 00:16:13;;;;;;;36.63;27.23;;;;;;;23.06;64.56;99430.50;4958717;28;20039;-76
2022/07/18 00:18:39;;;;;;;33.35;25.85;;;;;;;23.16;64.26;99435.56;4958796;29;20133;-76
2022/07/18 00:21:05;;;;;;;38.28;25.58;;;;;;;23.25;64.33;99434.38;4957315;29;20063;-76
2022/07/18 00:23:31;;;;;;;38.75;24.63;;;;;;;23.18;64.54;99433.50;4957173;29;20098;-76
2022/07/18 00:25:57;;;;;;;30.40;21.80;;;;;;;23.13;64.79;99433.22;4973172;28;20058;-76
2022/07/18 00:28:23;;;;;;;32.53;19.67;;;;;;;23.25;64.53;99439.81;4941000;29;20134;-75
2022/07/18 00:30:48;;;;;;;29.15;19.15;;;;;;;23.26;64.47;99445.06;4973097;28;20082;-76
2022/07/18 00:33:14;;;;;;;37.60;21.60;;;;;;;23.11;64.62;99443.53;4941379;29;20051;-76
2022/07/18 00:35:40;;;;;;;25.60;22.95;;;;;;;23.08;64.92;99449.38;4957202;29;20047;-75
2022/07/18 00:38:06;;;;;;;33.75;26.90;;;;;;;23.13;64.55;99452.31;4957991;29;20413;-75
2022/07/18 00:40:32;;;;;;;31.35;26.70;;;;;;;23.13;64.53;99441.41;4958020;28;20057;-76
2022/07/18 00:42:58;;;;;;;34.35;27.42;;;;;;;23.20;64.80;99442.28;4957779;29;20047;-76
2022/07/18 00:45:25;;;;;;;32.95;29.52;;;;;;;23.14;65.32;99441.22;4940671;29;20466;-76
2022/07/18 00:47:51;;;;;;;30.63;27.58;;;;;;;22.96;65.55;99454.53;4956976;29;20172;-76
2022/07/18 00:50:24;;;;;;;37.30;30.98;;;;;;;22.87;66.03;99452.97;4957700;28;20118;-75
2022/07/18 00:52:50;;;;;;;36.72;30.05;;;;;;;22.74;66.29;99442.81;4957838;29;20415;-76
2022/07/18 00:55:16;;;;;;;34.40;29.48;;;;;;;22.72;66.49;99451.22;4956322;29;20113;-75
2022/07/18 00:57:42;;;;;;;32.72;29.25;;;;;;;22.71;66.75;99456.84;4956335;29;20494;-76
2022/07/18 01:02:56;;;;;;;40.10;35.15;;;;;;;22.75;66.72;99453.56;4956566;29;20098;-75
2022/07/18 01:05:22;;;;;;;38.63;34.13;;;;;;;22.75;66.46;99453.56;4972591;28;20087;-76
2022/07/18 01:07:49;;;;;;;39.17;35.05;;;;;;;22.79;66.77;99454.84;4957230;29;20098;-74
2022/07/18 01:10:15;;;;;;;32.83;29.52;;;;;;;22.73;66.67;99446.59;4923302;29;20138;-75
2022/07/18 01:12:41;;;;;;;36.33;32.47;;;;;;;22.82;66.42;99445.41;4924455;29;20471;-75
2022/07/18 01:15:07;;;;;;;37.40;32.67;;;;;;;22.92;66.27;99453.25;4939829;29;20071;-77
2022/07/18 01:17:33;;;;;;;33.22;29.13;;;;;;;22.92;66.30;99445.91;4939992;29;20074;-76
2022/07/18 01:19:59;;;;;;;34.95;26.88;;;;;;;22.98;65.85;99449.72;4939192;29;20495;-76
2022/07/18 01:22:25;;;;;;;31.67;23.85;;;;;;;23.00;65.85;99442.19;4939458;29;20055;-75
2022/07/18 01:24:51;;;;;;;25.45;21.80;;;;;;;23.02;65.94;99451.88;4955864;29;20149;-76
2022/07/18 01:27:19;;;;;;;21.75;19.40;;;;;;;23.11;65.82;99455.25;4971972;28;20051;-76
2022/07/18 01:29:46;;;;;;;23.50;17.80;;;;;;;23.20;65.59;99442.28;4939899;29;20054;-74
2022/07/18 01:32:13;;;;;;;24.17;19.48;;;;;;;23.39;64.93;99451.63;4923845;29;20294;-75
2022/07/18 01:34:39;;;;;;;23.70;18.95;;;;;;;23.38;64.61;99444.47;4923779;29;20121;-76
2022/07/18 01:37:06;;;;;;;21.33;16.80;;;;;;;23.48;64.02;99445.78;4955575;29;20043;-75
2022/07/18 01:39:33;;;;;;;22.80;18.85;;;;;;;23.50;64.32;99451.03;4939861;29;20086;-76
2022/07/18 01:42:07;;;;;;;21.38;17.70;;;;;;;23.51;64.02;99445.38;4956788;29;20050;-75
2022/07/18 01:44:34;;;;;;;22.33;16.35;;;;;;;23.69;63.84;99446.72;4939604;29;20051;-75
2022/07/18 01:47:01;;;;;;;18.27;15.65;;;;;;;23.73;63.38;99450.72;4955603;29;20079;-76
2022/07/18 01:49:29;;;;;;;20.27;15.73;;;;;;;23.70;63.21;99437.50;4955431;29;20047;-76
2022/07/18 01:51:56;;;;;;;19.23;17.42;;;;;;;23.75;62.84;99451.38;4955161;29;20039;-76
2022/07/18 01:54:24;;;;;;;17.58;15.77;;;;;;;23.78;62.99;99450.97;4955628;29;20383;-77
2022/07/18 01:56:50;;;;;;;14.60;12.88;;;;;;;23.81;63.02;99456.03;4955190;29;20043;-76
2022/07/18 01:59:17;;;;;;;10.68;7.72;;;;;;;23.82;62.48;99452.25;4955151;29;20043;-77
2022/07/18 02:01:43;;;;;;;8.00;5.75;;;;;;;23.65;62.04;99459.06;4923494;29;20067;-76
2022/07/18 02:04:10;;;;;;;7.15;5.82;;;;;;;23.67;61.48;99462.47;4923417;29;20043;-75
2022/07/18 02:06:35;;;;;;;8.50;5.85;;;;;;;23.69;61.67;99461.22;4956116;28;20054;-74
2022/07/18 02:09:02;;;;;;;9.98;5.85;;;;;;;23.69;62.02;99474.03;4955443;29;20387;-76
2022/07/18 02:11:28;;;;;;;6.55;5.95;;;;;;;23.60;61.86;99454.22;4956388;28;20043;-76
2022/07/18 02:13:54;;;;;;;15.05;6.28;;;;;;;23.61;61.87;99465.97;4939013;29;20058;-76
2022/07/18 02:16:20;;;;;;;7.22;6.07;;;;;;;23.52;62.25;99462.59;4938999;29;20079;-76
2022/07/18 02:18:46;;;;;;;11.77;6.40;;;;;;;23.58;62.26;99467.22;4954899;29;20043;-75
2022/07/18 02:21:13;;;;;;;12.52;7.05;;;;;;;23.58;62.25;99460.94;4955994;28;20059;-76
2022/07/18 02:23:40;;;;;;;11.65;7.20;;;;;;;23.72;62.04;99468.16;4954756;29;20498;-77
2022/07/18 02:26:07;;;;;;;11.07;6.80;;;;;;;23.84;62.09;99466.50;4954814;29;20039;-75
2022/07/18 02:28:33;;;;;;;14.95;8.27;;;;;;;23.89;61.58;99472.22;4954586;29;20046;-76
2022/07/18 02:30:59;;;;;;;17.92;9.13;;;;;;;23.94;61.52;99461.50;4938644;29;20545;-75
2022/07/18 02:33:25;;;;;;;10.52;7.22;;;;;;;23.95;61.52;99467.78;4955915;29;20047;-75
2022/07/18 02:35:50;;;;;;;8.00;6.97;;;;;;;23.89;61.42;99463.19;4954527;29;20043;-74
2022/07/18 02:38:16;;;;;;;10.77;6.82;;;;;;;23.84;61.34;99449.28;4922625;29;20043;-76
2022/07/18 02:40:42;;;;;;;6.95;6.28;;;;;;;23.75;61.38;99456.84;4954790;29;20047;-75
2022/07/18 02:43:08;;;;;;;8.85;6.72;;;;;;;23.80;61.47;99465.25;4937912;29;20134;-78
2022/07/18 02:45:34;;;;;;;7.05;6.30;;;;;;;23.74;61.72;99466.06;4938300;29;20039;-76
2022/07/18 02:48:00;;;;;;;7.18;5.72;;;;;;;23.66;61.93;99474.41;4937792;29;20210;-76
2022/07/18 02:50:26;;;;;;;12.48;6.38;;;;;;;23.57;61.98;99464.72;4938273;29;20254;-77
2022/07/18 02:52:52;;;;;;;8.32;6.65;;;;;;;23.50;62.19;99465.50;4967776;28;20538;-76
2022/07/18 02:55:18;;;;;;;10.88;7.05;;;;;;;23.60;62.32;99480.69;4957283;28;20054;-76
2022/07/18 02:57:43;;;;;;;22.88;8.95;;;;;;;23.63;62.32;99478.38;4974619;28;20050;-81
2022/07/18 03:00:13;;;;;;;15.02;9.27;;;;;;;23.65;62.01;99478.16;4941277;28;20043;-75
2022/07/18 03:02:40;;;;;;;21.50;9.52;;;;;;;23.71;62.16;99482.84;4957241;28;20050;-76
2022/07/18 03:05:06;;;;;;;13.35;9.63;;;;;;;23.72;62.22;99495.44;4973232;28;20486;-76
2022/07/18 03:07:32;;;;;;;17.73;9.30;;;;;;;23.71;62.36;99477.41;4957133;28;20047;-77
2022/07/18 03:09:58;;;;;;;14.50;10.32;;;;;;;23.78;62.23;99494.66;4974490;28;20043;-76
2022/07/18 03:12:24;;;;;;;23.02;10.60;;;;;;;23.90;62.24;99487.53;4957080;28;20108;-75
2022/07/18 03:14:50;;;;;;;19.08;9.90;;;;;;;24.01;62.11;99488.81;4973439;28;20137;-76
2022/07/18 03:17:17;;;;;;;24.02;10.30;;;;;;;24.14;61.70;99490.75;4989596;28;20039;-76
2022/07/18 03:19:43;;;;;;;16.05;9.18;;;;;;;24.16;61.12;99475.84;4974647;28;20375;-76
2022/07/18 03:22:09;;;;;;;14.90;8.93;;;;;;;24.22;61.46;99485.06;4956958;28;20054;-77
2022/07/18 03:24:35;;;;;;;13.85;8.55;;;;;;;24.22;60.98;99496.00;4973095;28;20117;-76
2022/07/18 03:27:00;;;;;;;13.32;8.40;;;;;;;24.45;60.59;99499.25;4973073;28;20572;-76
2022/07/18 03:29:26;;;;;;;14.43;9.05;;;;;;;24.52;59.82;99493.75;4972790;28;20050;-75
2022/07/18 03:31:52;;;;;;;13.80;9.38;;;;;;;24.48;59.86;99497.97;4972650;28;20105;-75
2022/07/18 03:34:18;;;;;;;15.02;9.48;;;;;;;24.47;60.37;99499.00;4956375;28;20045;-77
2022/07/18 03:36:44;;;;;;;21.75;9.57;;;;;;;24.46;60.21;99486.41;4972768;28;20035;-76
2022/07/18 03:39:12;;;;;;;19.50;10.55;;;;;;;24.59;59.98;99488.28;4972629;28;20482;-76
2022/07/18 03:41:39;;;;;;;28.10;10.50;;;;;;;24.66;59.71;99487.25;4972950;28;20046;-76
2022/07/18 03:44:06;;;;;;;16.83;9.50;;;;;;;24.73;59.73;99492.72;4973949;28;20073;-76
2022/07/18 03:46:32;;;;;;;13.00;9.73;;;;;;;24.82;59.65;99493.34;4973744;28;20043;-76
2022/07/18 03:48:58;;;;;;;11.25;8.93;;;;;;;25.13;59.19;99481.78;4989068;28;20049;-77
2022/07/18 03:51:27;;;;;;;20.52;11.77;;;;;;;25.30;58.34;99488.44;4973855;28;20053;-77
2022/07/18 03:53:53;;;;;;;;;;;;;;;25.29;57.85;99489.50;4974630;28;20038;-77
2022/07/18 03:56:19;;;;;;;14.00;9.60;;;;;;;25.36;58.20;99490.34;4972936;28;20036;-77
2022/07/18 03:58:45;;;;;;;16.73;9.60;;;;;;;25.47;57.68;99482.53;4972702;28;20050;-76
2022/07/18 04:01:11;;;;;;;13.85;8.63;;;;;;;25.62;57.43;99488.56;4974083;28;20046;-77
2022/07/18 04:03:37;;;;;;;17.50;9.75;;;;;;;25.53;57.16;99481.63;4940972;28;20039;-76
2022/07/18 04:06:03;;;;;;;14.23;10.25;;;;;;;25.39;57.42;99491.81;4956427;28;20045;-78
2022/07/18 04:08:28;;;;;;;10.73;9.18;;;;;;;25.50;57.70;99487.53;4956501;28;20078;-76
2022/07/18 04:10:54;;;;;;;11.98;9.80;;;;;;;25.72;57.44;99496.28;4956372;28;20035;-76
2022/07/18 04:13:20;;;;;;;15.75;11.85;;;;;;;25.90;56.44;99493.72;4956353;28;20458;-76
2022/07/18 04:15:46;;;;;;;13.25;11.32;;;;;;;25.79;56.73;99495.25;4956334;28;20055;-77
2022/07/18 04:18:12;;;;;;;22.25;10.93;;;;;;;25.63;56.82;99495.72;4972445;28;20054;-78
2022/07/18 04:20:38;;;;;;;17.42;10.48;;;;;;;25.39;57.77;99492.66;4988741;28;20066;-75
2022/07/18 04:23:08;;;;;;;17.48;10.73;;;;;;;25.34;58.10;99489.69;4973639;28;20082;-77
2022/07/18 04:25:37;;;;;;;18.42;11.05;;;;;;;25.49;58.27;99497.66;4972474;28;20145;-76
2022/07/18 04:28:04;;;;;;;19.98;10.02;;;;;;;25.53;57.86;99487.94;4973547;28;20039;-79
2022/07/18 04:30:31;;;;;;;18.65;10.18;;;;;;;25.99;57.44;99500.63;4972780;28;20085;-77
2022/07/18 04:33:00;;;;;;;22.60;12.05;;;;;;;26.19;55.97;99495.03;4972298;28;20061;-78
2022/07/18 04:35:26;;;;;;;27.08;13.13;;;;;;;26.13;55.90;99487.69;4973719;28;20130;-77
2022/07/18 04:37:52;;;;;;;23.27;13.65;;;;;;;25.82;56.85;99488.50;4988594;28;20134;-75
2022/07/18 04:40:18;;;;;;;28.52;13.63;;;;;;;26.06;56.89;99487.72;4973602;28;20043;-76
2022/07/18 04:42:44;;;;;;;27.75;13.38;;;;;;;26.28;56.15;99490.94;4988745;28;20051;-79
2022/07/18 04:45:11;;;;;;;25.45;14.85;;;;;;;26.22;55.94;99486.38;4978610;28;20047;-81
2022/07/18 04:47:37;;;;;;;26.45;14.02;;;;;;;26.08;56.44;99485.59;4979064;28;20053;-76
2022/07/18 04:50:04;;;;;;;27.45;14.55;;;;;;;26.13;56.96;99484.94;4977825;28;20042;-81
2022/07/18 04:52:41;;;;;;;25.13;13.55;;;;;;;26.12;56.74;99481.38;4975808;28;20233;-80
2022/07/18 04:55:09;;;;;;;35.58;15.10;;;;;;;26.25;56.41;99480.44;4975822;28;20102;-84
2022/07/18 04:57:37;;;;;;;44.92;14.52;;;;;;;26.26;55.92;99476.66;4976135;28;20047;-81
2022/07/18 05:00:05;;;;;;;38.55;15.73;;;;;;;26.14;56.22;99473.78;4992087;28;20046;-82
2022/07/18 05:02:31;;;;;;;75.47;15.73;;;;;;;25.91;56.42;99463.38;4991725;28;20082;-78
2022/07/18 05:04:57;;;;;;;58.83;16.15;;;;;;;25.99;56.60;99470.50;4976936;28;20070;-77
2022/07/18 05:07:23;;;;;;;48.58;14.60;;;;;;;26.18;56.57;99474.19;4991624;28;20042;-78
2022/07/18 05:09:48;;;;;;;52.63;16.27;;;;;;;26.30;56.23;99475.16;4991519;28;20562;-77
2022/07/18 05:12:14;;;;;;;47.92;18.38;;;;;;;26.47;55.76;99471.88;4991376;28;20050;-78
2022/07/18 05:14:40;;;;;;;60.28;17.13;;;;;;;26.82;54.95;99466.75;4975608;28;20418;-80
2022/07/18 05:17:06;;;;;;;50.00;17.65;;;;;;;27.07;54.40;99481.25;4975277;28;20039;-78
2022/07/18 05:19:32;;;;;;;54.38;21.20;;;;;;;27.23;53.98;99466.13;4959240;28;20050;-79
2022/07/18 05:21:57;;;;;;;57.97;20.08;;;;;;;27.30;53.97;99461.38;4974843;28;20054;-78
2022/07/18 05:24:23;;;;;;;55.83;24.63;;;;;;;27.31;53.62;99454.84;4958967;28;20046;-76
2022/07/18 05:26:49;;;;;;;63.45;24.35;;;;;;;27.29;53.73;99464.38;4974989;28;20112;-78
2022/07/18 05:29:15;;;;;;;50.78;24.27;;;;;;;27.15;53.68;99462.84;4974743;28;20057;-77
2022/07/18 05:31:41;;;;;;;54.88;24.23;;;;;;;27.50;53.25;99460.34;4991399;28;20054;-77
2022/07/18 05:34:08;;;;;;;47.72;21.63;;;;;;;27.62;52.59;99463.16;4958788;28;20041;-78
2022/07/18 05:36:33;;;;;;;49.63;21.80;;;;;;;27.61;52.74;99456.81;4957927;28;20077;-77
2022/07/18 05:39:00;;;;;;;44.80;21.88;;;;;;;27.75;52.06;99461.06;4990959;28;20134;-76
2022/07/18 05:41:26;;;;;;;42.95;18.83;;;;;;;28.02;51.93;99457.97;4976053;28;20137;-77
2022/07/18 05:43:52;;;;;;;49.13;18.88;;;;;;;28.19;51.63;99456.22;4974903;28;20133;-77
2022/07/18 05:46:17;;;;;;;47.90;18.17;;;;;;;28.25;50.57;99463.53;4975959;28;20047;-77
2022/07/18 05:48:43;;;;;;;50.75;18.67;;;;;;;28.02;51.06;99446.97;4976013;28;20073;-77
2022/07/18 05:51:10;;;;;;;47.30;18.95;;;;;;;28.05;51.77;99457.50;4975991;28;20065;-78
2022/07/18 05:53:36;;;;;;;55.72;20.10;;;;;;;28.22;50.97;99453.00;4958650;28;20153;-77
2022/07/18 05:56:02;;;;;;;61.25;18.33;;;;;;;28.47;50.76;99452.00;4975675;28;20510;-78
2022/07/18 05:58:28;;;;;;;66.53;16.08;;;;;;;28.74;50.63;99450.50;4974295;28;20134;-78
2022/07/18 06:00:54;;;;;;;57.08;15.20;;;;;;;28.44;50.34;99445.09;4990903;28;20410;-79
2022/07/18 06:03:19;;;;;;;78.00;16.35;;;;;;;28.60;49.64;99438.03;4974703;28;20449;-78
2022/07/18 06:05:45;;;;;;;80.65;15.27;;;;;;;28.38;49.11;99453.44;4974556;28;20047;-78
2022/07/18 06:08:11;;;;;;;87.05;16.55;;;;;;;27.81;50.13;99451.09;4958673;28;20141;-80
2022/07/18 06:10:37;;;;;;;77.15;14.80;;;;;;;27.69;50.96;99451.00;4976307;28;20398;-78
2022/07/18 06:13:03;;;;;;;71.57;14.27;;;;;;;27.63;50.73;99454.66;4976410;28;20100;-78
2022/07/18 06:15:29;;;;;;;73.18;15.77;;;;;;;27.92;51.18;99447.53;4974982;28;20046;-78
2022/07/18 06:17:54;;;;;;;73.57;14.15;;;;;;;28.30;50.49;99449.91;4959110;28;20454;-77
2022/07/18 06:20:21;;;;;;;51.88;11.77;;;;;;;28.56;49.29;99447.84;4973965;28;20062;-77
2022/07/18 06:22:47;;;;;;;66.22;12.98;;;;;;;28.52;48.53;99442.00;4974583;28;20426;-80
2022/07/18 06:25:13;;;;;;;61.38;11.25;;;;;;;28.54;49.16;99442.56;4975339;28;20042;-79
2022/07/18 06:27:39;;;;;;;54.38;12.13;;;;;;;28.85;49.05;99434.22;4973924;28;20518;-80
2022/07/18 06:30:08;;;;;;;57.47;11.65;;;;;;;29.07;48.51;99431.72;4942049;28;20081;-78
2022/07/18 06:32:34;;;;;;;49.00;10.90;;;;;;;29.27;48.05;99444.03;4975158;28;20058;-78
2022/07/18 06:35:00;;;;;;;39.90;9.82;;;;;;;29.09;47.50;99441.41;4989449;28;20043;-78
2022/07/18 06:37:26;;;;;;;40.13;10.23;;;;;;;28.91;47.65;99436.84;4973513;28;20079;-80
2022/07/18 06:39:51;;;;;;;48.80;10.85;;;;;;;28.93;47.84;99431.13;4974080;28;20039;-77
2022/07/18 06:42:17;;;;;;;36.35;10.68;;;;;;;29.01;47.46;99426.09;4974965;28;20407;-77
2022/07/18 06:44:43;;;;;;;35.65;11.10;;;;;;;28.70;48.35;99437.47;4941789;28;20050;-77
2022/07/18 06:47:09;;;;;;;37.15;10.13;;;;;;;28.72;48.29;99430.63;4957749;28;20093;-77
2022/07/18 06:49:35;;;;;;;43.58;11.07;;;;;;;28.89;47.49;99435.44;4990007;28;20054;-78
2022/07/18 06:52:04;;;;;;;49.05;11.02;;;;;;;28.66;48.29;99426.09;4941743;28;20046;-79
2022/07/18 06:54:30;;;;;;;28.52;10.32;;;;;;;28.78;47.95;99426.94;4974969;28;20549;-79
2022/07/18 06:56:58;;;;;;;31.92;10.85;;;;;;;28.98;47.25;99423.00;4973407;28;20050;-79
2022/07/18 06:59:24;;;;;;;32.20;10.98;;;;;;;29.09;47.16;99424.91;4974712;28;20402;-79
2022/07/18 07:01:50;;;;;;;36.15;10.40;;;;;;;29.07;47.77;99424.28;4973378;28;20046;-79
2022/07/18 07:04:15;;;;;;;27.50;9.88;;;;;;;29.12;47.35;99412.59;4957307;28;20458;-80
2022/07/18 07:06:41;;;;;;;26.67;8.68;;;;;;;29.15;46.31;99415.69;4957368;28;20137;-80
2022/07/18 07:09:07;;;;;;;28.13;9.27;;;;;;;29.31;46.06;99427.03;4972384;28;20042;-80
2022/07/18 07:11:33;;;;;;;30.35;9.82;;;;;;;29.29;45.79;99408.81;4989732;28;20049;-80
2022/07/18 07:13:59;;;;;;;39.78;11.02;;;;;;;29.00;46.47;99410.69;4989909;28;20517;-79
2022/07/18 07:16:24;;;;;;;31.58;10.48;;;;;;;29.13;46.83;99409.56;4974514;28;20045;-79
2022/07/18 07:18:50;;;;;;;41.72;11.38;;;;;;;29.64;46.19;99416.19;4973500;28;20053;-81
2022/07/18 07:21:16;;;;;;;35.83;9.80;;;;;;;29.92;45.01;99395.19;4974539;28;20063;-79
2022/07/18 07:23:42;;;;;;;31.95;9.43;;;;;;;30.29;43.48;99394.78;4974289;28;20046;-79
2022/07/18 07:26:08;;;;;;;30.42;8.82;;;;;;;30.25;42.67;99413.75;4973224;28;20101;-80
2022/07/18 07:28:34;;;;;;;23.98;8.23;;;;;;;29.68;43.91;99406.34;4973221;28;20074;-79
2022/07/18 07:31:00;;;;;;;21.45;6.90;;;;;;;29.74;43.36;99408.09;4974152;28;20181;-79
2022/07/18 07:33:26;;;;;;;23.45;7.88;;;;;;;29.74;44.09;99399.81;4973119;28;20054;-79
2022/07/18 07:35:52;;;;;;;16.77;6.32;;;;;;;30.05;43.14;99411.41;4974389;28;20039;-79
2022/07/18 07:38:18;;;;;;;15.45;6.53;;;;;;;30.36;41.96;99404.56;4974042;28;20057;-82
2022/07/18 07:40:46;;;;;;;14.35;6.05;;;;;;;30.76;41.23;99394.41;4973904;28;20051;-79
2022/07/18 07:43:15;;;;;;;18.40;6.13;;;;;;;30.71;40.63;99401.50;4972757;28;20097;-78
2022/07/18 07:45:45;;;;;;;15.85;6.13;;;;;;;30.43;41.49;99402.47;4972724;28;20120;-79
2022/07/18 07:48:11;;;;;;;10.27;5.55;;;;;;;30.16;41.85;99399.50;4972476;28;20046;-79
2022/07/18 07:50:37;;;;;;;15.02;4.95;;;;;;;30.20;41.78;99381.41;4973318;28;20049;-79
2022/07/18 07:53:03;;;;;;;11.60;5.25;;;;;;;30.62;41.24;99397.50;4957065;28;20047;-78
2022/07/18 07:55:29;;;;;;;6.53;4.63;;;;;;;30.83;41.09;99389.56;4973034;28;20529;-78
2022/07/18 07:57:55;;;;;;;13.00;5.22;;;;;;;30.83;40.27;99389.56;4973943;28;20564;-79
2022/07/18 08:00:21;;;;;;;6.82;4.72;;;;;;;31.02;39.84;99401.97;4956689;28;20082;-78
2022/07/18 08:02:54;;;;;;;8.95;5.00;;;;;;;31.18;39.75;99395.59;4989370;28;20047;-80
2022/07/18 08:05:21;;;;;;;9.38;4.25;;;;;;;31.59;39.65;99401.59;4973508;28;20043;-77
2022/07/18 08:07:50;;;;;;;6.28;4.45;;;;;;;31.97;38.70;99383.25;4972657;28;20105;-78
2022/07/18 08:10:17;;;;;;;9.75;4.30;;;;;;;32.36;38.29;99380.28;4972671;28;20043;-75
2022/07/18 08:12:43;;;;;;;6.20;4.10;;;;;;;32.64;37.10;99392.94;4972491;28;20069;-77
2022/07/18 08:15:09;;;;;;;10.68;4.28;;;;;;;32.38;36.34;99376.16;4973764;28;20078;-75
2022/07/18 08:17:35;;;;;;;9.32;4.57;;;;;;;31.97;36.83;99377.72;4974604;28;20156;-75
2022/07/18 08:20:01;;;;;;;5.45;3.90;;;;;;;32.12;37.41;99380.63;4990195;28;20549;-76
2022/07/18 08:22:27;;;;;;;10.25;4.43;;;;;;;32.48;36.44;99372.63;4960248;28;20129;-76
2022/07/18 08:24:54;;;;;;;10.30;4.18;;;;;;;32.81;37.03;99376.19;4981004;28;20494;-88
2022/07/18 08:27:20;;;;;;;9.90;4.00;;;;;;;32.84;35.53;99370.13;4962649;28;20130;-79
2022/07/18 08:29:46;;;;;;;7.43;3.92;;;;;;;32.69;35.02;99368.09;4976138;28;20129;-82
2022/07/18 08:32:13;;;;;;;6.55;4.03;;;;;;;32.28;35.01;99366.94;4960584;28;20081;-78
2022/07/18 08:34:39;;;;;;;8.88;3.90;;;;;;;31.89;36.06;99364.38;4976360;28;20049;-77
2022/07/18 08:37:05;;;;;;;6.18;4.10;;;;;;;32.02;36.80;99369.47;4976372;28;20042;-79
2022/07/18 08:39:31;;;;;;;6.15;3.90;;;;;;;32.27;35.69;99354.19;4975879;28;20201;-78
2022/07/18 08:42:00;;;;;;;6.82;3.90;;;;;;;32.54;35.16;99357.75;4977102;28;20047;-78
2022/07/18 08:44:28;;;;;;;8.65;3.88;;;;;;;32.14;35.10;99356.31;4959846;28;20070;-78
2022/07/18 08:46:57;;;;;;;10.15;3.70;;;;;;;32.05;35.20;99352.38;4975858;28;20109;-79
2022/07/18 08:49:23;;;;;;;4.10;3.70;;;;;;;32.69;35.06;99361.72;4975585;28;20068;-78
2022/07/18 08:51:49;;;;;;;5.00;3.70;;;;;;;32.66;33.58;99351.19;4975951;28;20042;-79
2022/07/18 08:54:15;;;;;;;7.53;4.10;;;;;;;32.27;34.62;99349.50;4975812;28;20596;-80
2022/07/18 08:56:41;;;;;;;8.32;3.90;;;;;;;32.58;34.25;99345.03;4975627;28;20137;-80
2022/07/18 08:59:07;;;;;;;7.93;3.97;;;;;;;32.83;34.00;99340.75;4975728;28;20133;-79
2022/07/18 09:01:33;;;;;;;10.18;4.03;;;;;;;32.70;34.05;99336.53;4976677;28;20577;-79
2022/07/18 09:04:16;;;;;;;9.45;4.20;;;;;;;32.76;34.19;99340.16;4976839;28;20050;-80
2022/07/18 09:06:50;;;;;;;11.85;3.90;;;;;;;32.85;34.13;99330.25;4977322;28;20047;-80
2022/07/18 09:09:18;;;;;;;7.57;3.60;;;;;;;32.98;33.15;99327.00;4959661;28;20070;-78
2022/07/18 09:11:56;;;;;;;19.90;4.18;;;;;;;32.73;33.49;99327.69;4976022;28;20066;-78
2022/07/18 09:14:39;;;;;;;5.45;3.50;;;;;;;32.60;33.94;99331.75;4959293;28;20070;-79
2022/07/18 09:17:25;;;;;;;8.20;3.63;;;;;;;32.60;33.87;99334.53;4959206;28;20069;-78
2022/07/18 09:20:08;;;;;;;7.47;3.40;;;;;;;33.03;33.98;99334.53;4975268;28;20058;-80
2022/07/18 09:22:36;;;;;;;13.40;3.60;;;;;;;33.63;33.15;99326.69;4975537;28;20062;-77
2022/07/18 09:25:07;;;;;;;;;;;;;;;34.16;32.52;99338.41;4991862;28;20081;-78
2022/07/18 09:27:45;;;;;;;6.47;3.70;;;;;;;34.07;31.61;99321.47;4975173;28;19929;-78
2022/07/18 09:30:15;;;;;;;6.35;3.17;;;;;;;33.83;31.56;99310.09;4974246;28;20118;-79
2022/07/18 09:32:44;;;;;;;11.25;3.75;;;;;;;33.78;31.82;99316.47;4974112;28;20054;-77
2022/07/18 09:35:12;;;;;;;10.75;3.90;;;;;;;34.38;31.96;99311.22;4942985;28;20070;-78
2022/07/18 09:37:39;;;;;;;14.80;3.58;;;;;;;34.92;31.06;99299.41;4958576;28;20043;-78
2022/07/18 09:40:21;;;;;;;19.42;3.95;;;;;;;34.91;30.94;99313.59;4975239;28;20073;-78
2022/07/18 09:42:55;;;;;;;8.82;3.00;;;;;;;34.97;29.79;99307.72;4974892;28;20050;-78
2022/07/18 09:45:27;;;;;;;13.98;3.20;;;;;;;35.43;30.29;99293.63;4959213;28;20138;-77
2022/07/18 09:47:55;;;;;;;6.20;2.95;;;;;;;35.96;29.07;99310.50;4975526;28;20054;-78
2022/07/18 09:50:24;;;;;;;7.13;3.20;;;;;;;36.49;28.86;99298.66;4975813;28;20053;-77
2022/07/18 09:53:04;;;;;;;14.40;3.50;;;;;;;36.77;28.37;99293.34;4958525;28;20069;-78
2022/07/18 09:55:30;;;;;;;7.00;3.35;;;;;;;36.89;27.47;99296.53;4975184;28;20458;-77
2022/07/18 09:58:02;;;;;;;6.70;3.40;;;;;;;36.79;27.42;99294.72;4975606;28;20046;-77
2022/07/18 10:00:30;;;;;;;11.65;3.40;;;;;;;36.86;27.40;99300.75;4974926;28;20045;-79
2022/07/18 10:02:58;;;;;;;7.05;3.13;;;;;;;36.81;26.78;99295.22;4975554;28;20089;-78
2022/07/18 10:05:27;;;;;;;6.88;3.03;;;;;;;37.11;27.17;99287.63;4974432;28;20055;-78
2022/07/18 10:07:53;;;;;;;10.95;3.10;;;;;;;37.32;26.87;99289.00;4958516;28;20061;-78
2022/07/18 10:10:24;;;;;;;5.57;3.00;;;;;;;37.66;26.08;99294.38;4958126;28;20054;-80
2022/07/18 10:12:56;;;;;;;5.90;3.05;;;;;;;38.34;25.04;99297.78;4959789;28;20042;-87
2022/07/18 10:15:23;;;;;;;7.47;2.92;;;;;;;38.80;24.61;99283.75;4975730;28;20042;-82
2022/07/18 10:17:49;;;;;;;5.25;2.85;;;;;;;39.10;24.32;99281.44;4978236;28;20047;-82
2022/07/18 10:20:15;;;;;;;7.30;2.75;;;;;;;39.46;24.54;99289.06;4981005;28;20078;-83
2022/07/18 10:22:42;;;;;;;6.05;2.92;;;;;;;39.62;23.57;99275.53;4974363;28;20097;-85
2022/07/18 10:25:10;;;;;;;7.13;2.70;;;;;;;39.32;23.67;99286.31;4974243;28;20042;-81
2022/07/18 10:27:53;;;;;;;4.93;2.80;;;;;;;38.28;24.13;99276.63;4974010;28;20046;-82
2022/07/18 10:30:31;;;;;;;8.90;2.70;;;;;;;38.63;24.52;99275.97;4975278;28;20233;-82
2022/07/18 10:32:57;;;;;;;7.15;2.70;;;;;;;39.32;24.35;99283.50;4990401;28;20063;-82
2022/07/18 10:35:59;;;;;;;12.32;3.35;;;;;;;40.13;22.93;99283.53;4974051;28;20135;-84
2022/07/18 10:38:26;;;;;;;4.25;2.50;;;;;;;40.16;23.02;99274.50;4973920;28;20047;-83
2022/07/18 10:41:09;;;;;;;10.20;3.00;;;;;;;40.31;22.21;99267.66;4973612;28;20109;-82
2022/07/18 10:43:41;;;;;;;7.00;2.67;;;;;;;40.69;22.24;99268.00;4974486;28;20078;-82
2022/07/18 10:46:09;;;;;;;7.07;2.85;;;;;;;40.67;21.83;99264.72;4974473;28;20077;-82
2022/07/18 10:48:35;;;;;;;4.88;2.60;;;;;;;40.77;21.94;99272.84;4974979;28;20074;-81
2022/07/18 10:51:07;;;;;;;12.20;2.70;;;;;;;41.54;21.49;99270.53;4973683;28;20443;-82
2022/07/18 10:53:55;;;;;;;6.28;2.60;;;;;;;42.19;20.65;99269.47;4942504;28;20069;-81
2022/07/18 10:56:41;;;;;;;4.40;2.47;;;;;;;42.73;20.14;99287.81;4958278;28;20050;-82
2022/07/18 10:59:22;;;;;;;8.90;2.92;;;;;;;42.91;19.88;99275.31;4959708;28;20070;-82
2022/07/18 11:01:50;;;;;;;4.65;2.50;;;;;;;42.34;20.05;99261.69;4973714;28;20078;-81
2022/07/18 11:04:32;;;;;;;3.88;2.13;;;;;;;40.93;20.66;99273.22;4973708;28;20121;-82
2022/07/18 11:07:08;;;;;;;6.78;2.45;;;;;;;40.37;21.67;99254.34;4974913;28;20533;-82
2022/07/18 11:09:40;;;;;;;9.02;2.38;;;;;;;41.13;21.97;99260.56;4975376;28;20384;-84
2022/07/18 11:12:30;;;;;;;9.80;2.67;;;;;;;41.12;21.68;99266.50;4975673;28;20070;-83
2022/07/18 11:15:13;;;;;;;4.78;2.67;;;;;;;39.32;22.87;99273.16;4960538;28;20050;-83
2022/07/18 11:17:54;;;;;;;4.35;2.60;;;;;;;38.96;23.76;99258.28;4980630;28;20055;-86
2022/07/18 11:20:35;;;;;;;5.32;2.40;;;;;;;39.78;22.06;99258.09;4947753;28;20047;-83
2022/07/18 11:23:25;;;;;;;7.32;2.53;;;;;;;40.05;22.16;99256.28;4983976;28;20144;-87
2022/07/18 11:25:54;;;;;;;7.38;3.35;;;;;;;40.07;21.46;99259.59;4983895;28;20144;-89
2022/07/18 11:28:21;;;;;;;4.65;2.47;;;;;;;40.37;21.85;99259.94;4978323;28;20049;-91
2022/07/18 11:31:08;;;;;;;7.32;2.60;;;;;;;41.41;21.19;99260.28;4979546;28;20101;-87